< < Back
Terminal Aerodrome Forecast


Current Version              Previous Versions:   1  2  3  4  5  6  7  8  9  

Terminal Aerodrome Forecast

231
FTUS44 KOHX 250836 AAA
TAFCSV
TAF AMD
KCSV 250836Z 2509/2606 00000KT 4SM BR SKC
     FM250930 00000KT 2SM BR SKC
     FM251400 26004KT P6SM SCT250
     FM251800 25005KT P6SM SCT040 BKN150
     FM260100 VRB02KT P6SM SCT250=

Latest METAR

439
SAUS70 KWBC 252300 RRC
MTRCSV
METAR KCSV 252253Z AUTO 00000KT 10SM SCT041 BKN050 BKN055 27/22 A3017
RMK AO2 SLP195 T02720217


USA.gov is the U.S. government's official web portal to all federal, state and local government web resources and services.